Time;durP1;ratioP1;P1;durP2;ratioP2;P2;SDS_P1;SDS_P2;PMS_P1;PMS_P2;Temp;Humidity;BMP_temperature;BMP_pressure;BME280_temperature;BME280_humidity;BME280_pressure;Samples;Min_cycle;Max_cycle;Signal;HPM_P1;HPM_P2
2023/12/29 00:01:19;;;;;;;7.47;3.90;;;;;;;;;;5098552;28;20230;-67
2023/12/29 00:03:47;;;;;;;6.60;3.50;;;;;;;;;;5098686;28;20207;-67
2023/12/29 00:06:14;;;;;;;7.95;4.07;;;;;;;;;;5098734;28;20544;-67
2023/12/29 00:08:43;;;;;;;6.38;3.70;;;;;;;;;;5098858;28;20698;-67
2023/12/29 00:11:18;;;;;;;5.78;3.85;;;;;;;;;;5098308;28;20238;-67
2023/12/29 00:13:45;;;;;;;6.00;3.47;;;;;;;;;;5098767;28;20568;-66
2023/12/29 00:16:13;;;;;;;5.18;3.03;;;;;;;;;;5098592;28;20203;-67
2023/12/29 00:18:40;;;;;;;6.80;3.70;;;;;;;;;;5098742;28;20290;-66
2023/12/29 00:21:08;;;;;;;5.05;3.60;;;;;;;;;;5098219;28;20488;-67
2023/12/29 00:23:35;;;;;;;5.50;3.47;;;;;;;;;;5098064;28;20206;-66
2023/12/29 00:26:04;;;;;;;5.32;3.10;;;;;;;;;;5098503;28;20463;-66
2023/12/29 00:28:32;;;;;;;4.32;3.10;;;;;;;;;;5097948;28;20235;-66
2023/12/29 00:31:00;;;;;;;7.75;3.47;;;;;;;;;;5098264;28;20264;-66
2023/12/29 00:33:27;;;;;;;3.95;3.10;;;;;;;;;;5098469;28;20208;-68
2023/12/29 00:35:54;;;;;;;4.22;2.97;;;;;;;;;;5097811;28;20204;-67
2023/12/29 00:38:22;;;;;;;6.22;3.35;;;;;;;;;;5098481;28;20203;-66
2023/12/29 00:40:50;;;;;;;4.80;3.15;;;;;;;;;;5097772;28;20235;-67
2023/12/29 00:43:18;;;;;;;4.25;3.25;;;;;;;;;;5097670;28;20286;-66
2023/12/29 00:45:46;;;;;;;5.38;3.67;;;;;;;;;;5097756;28;20215;-67
2023/12/29 00:48:13;;;;;;;4.60;2.95;;;;;;;;;;5097625;28;20696;-68
2023/12/29 00:50:41;;;;;;;3.92;3.00;;;;;;;;;;5098225;28;20211;-68
2023/12/29 00:53:08;;;;;;;4.43;3.03;;;;;;;;;;5097793;28;20239;-67
2023/12/29 00:55:36;;;;;;;4.78;2.97;;;;;;;;;;5097191;28;20240;-67
2023/12/29 00:58:03;;;;;;;4.05;2.92;;;;;;;;;;5097721;28;20210;-68
2023/12/29 01:00:32;;;;;;;4.28;2.63;;;;;;;;;;5097783;28;20246;-66
2023/12/29 01:02:59;;;;;;;4.80;2.70;;;;;;;;;;5098022;28;20589;-66
2023/12/29 01:05:27;;;;;;;5.20;2.92;;;;;;;;;;5098351;28;20608;-66
2023/12/29 01:07:56;;;;;;;4.18;2.70;;;;;;;;;;5097845;28;20592;-66
2023/12/29 01:10:23;;;;;;;3.90;2.58;;;;;;;;;;5097710;28;20203;-66
2023/12/29 01:12:51;;;;;;;3.40;2.40;;;;;;;;;;5097528;28;20215;-67
2023/12/29 01:15:18;;;;;;;3.60;2.38;;;;;;;;;;5097673;28;20214;-67
2023/12/29 01:17:47;;;;;;;4.20;2.80;;;;;;;;;;5097593;28;20199;-66
2023/12/29 01:20:14;;;;;;;2.80;2.10;;;;;;;;;;5097995;28;20298;-67
2023/12/29 01:22:42;;;;;;;3.33;2.22;;;;;;;;;;5097827;28;20226;-68
2023/12/29 01:25:10;;;;;;;3.65;2.30;;;;;;;;;;5097264;28;20212;-66
2023/12/29 01:27:37;;;;;;;3.80;2.55;;;;;;;;;;5097939;28;20284;-68
2023/12/29 01:30:05;;;;;;;3.50;2.42;;;;;;;;;;5097564;28;20286;-68
2023/12/29 01:32:32;;;;;;;4.18;2.30;;;;;;;;;;5096667;28;20204;-67
2023/12/29 01:35:01;;;;;;;3.58;2.60;;;;;;;;;;5097305;28;20549;-67
2023/12/29 01:37:29;;;;;;;2.97;2.53;;;;;;;;;;5097753;28;20239;-67
2023/12/29 01:39:57;;;;;;;3.42;2.35;;;;;;;;;;5097718;28;20276;-67
2023/12/29 01:42:24;;;;;;;3.50;2.20;;;;;;;;;;5097434;28;20215;-67
2023/12/29 01:44:54;;;;;;;3.00;2.05;;;;;;;;;;5097573;28;20203;-67
2023/12/29 01:47:22;;;;;;;3.47;2.42;;;;;;;;;;5097445;28;20227;-67
2023/12/29 01:49:50;;;;;;;2.92;2.25;;;;;;;;;;5097555;28;20234;-67
2023/12/29 01:52:19;;;;;;;2.88;2.00;;;;;;;;;;5097563;28;20307;-67
2023/12/29 01:54:47;;;;;;;2.67;2.03;;;;;;;;;;5097456;28;20739;-67
2023/12/29 01:57:15;;;;;;;2.38;1.85;;;;;;;;;;5097012;28;20207;-67
2023/12/29 01:59:43;;;;;;;2.97;2.10;;;;;;;;;;5097002;28;20262;-67
2023/12/29 02:02:11;;;;;;;2.65;2.03;;;;;;;;;;5097045;28;20721;-67
2023/12/29 02:04:39;;;;;;;2.80;2.13;;;;;;;;;;5097100;28;20211;-67
2023/12/29 02:07:07;;;;;;;3.70;2.10;;;;;;;;;;5100694;28;20210;-67
2023/12/29 02:09:36;;;;;;;3.08;2.05;;;;;;;;;;5101047;28;20227;-67
2023/12/29 02:12:04;;;;;;;2.08;1.80;;;;;;;;;;5101489;28;20476;-67
2023/12/29 02:14:31;;;;;;;2.10;1.75;;;;;;;;;;5101001;28;20302;-67
2023/12/29 02:17:03;;;;;;;2.33;1.70;;;;;;;;;;5100926;28;20204;-67
2023/12/29 02:19:49;;;;;;;1.98;1.73;;;;;;;;;;5101343;28;20531;-67
2023/12/29 02:22:17;;;;;;;2.72;1.88;;;;;;;;;;5100786;28;20215;-67
2023/12/29 02:24:49;;;;;;;2.95;1.60;;;;;;;;;;5100600;28;20204;-67
2023/12/29 02:27:25;;;;;;;1.95;1.58;;;;;;;;;;5100765;28;20204;-67
2023/12/29 02:29:58;;;;;;;2.75;1.75;;;;;;;;;;5100749;28;20235;-67
2023/12/29 02:32:28;;;;;;;2.53;1.77;;;;;;;;;;5100333;28;20272;-67
2023/12/29 02:34:56;;;;;;;2.47;1.80;;;;;;;;;;5100914;28;20238;-68
2023/12/29 02:37:23;;;;;;;2.25;1.63;;;;;;;;;;5100603;28;20204;-67
2023/12/29 02:39:52;;;;;;;2.20;1.42;;;;;;;;;;5100761;28;20324;-67
2023/12/29 02:42:19;;;;;;;1.85;1.65;;;;;;;;;;5100143;28;20294;-67
2023/12/29 02:44:47;;;;;;;1.67;1.50;;;;;;;;;;5100133;28;20302;-67
2023/12/29 02:47:16;;;;;;;1.67;1.45;;;;;;;;;;5099925;28;20207;-67
2023/12/29 02:49:44;;;;;;;1.73;1.42;;;;;;;;;;5100091;28;20256;-67
2023/12/29 02:52:11;;;;;;;2.17;1.60;;;;;;;;;;5100166;28;20216;-67
2023/12/29 02:54:39;;;;;;;2.10;1.48;;;;;;;;;;5100323;28;20282;-68
2023/12/29 02:57:08;;;;;;;2.22;1.67;;;;;;;;;;5100369;28;20204;-67
2023/12/29 02:59:37;;;;;;;2.65;1.67;;;;;;;;;;5099711;28;20228;-67
2023/12/29 03:02:05;;;;;;;1.40;1.30;;;;;;;;;;5100090;28;20268;-67
2023/12/29 03:04:32;;;;;;;2.22;1.63;;;;;;;;;;5099929;28;20504;-67
2023/12/29 03:06:59;;;;;;;1.60;1.50;;;;;;;;;;5100177;28;20306;-67
2023/12/29 03:09:27;;;;;;;1.35;1.25;;;;;;;;;;5099602;28;20314;-67
2023/12/29 03:11:54;;;;;;;1.67;1.38;;;;;;;;;;5100058;28;20210;-67
2023/12/29 03:14:23;;;;;;;1.75;1.60;;;;;;;;;;5099869;28;20282;-67
2023/12/29 03:16:51;;;;;;;1.67;1.25;;;;;;;;;;5099381;28;20204;-67
2023/12/29 03:19:18;;;;;;;2.03;1.20;;;;;;;;;;5099375;28;20200;-68
2023/12/29 03:21:46;;;;;;;2.05;1.45;;;;;;;;;;5099518;28;20478;-67
2023/12/29 03:24:13;;;;;;;1.27;1.17;;;;;;;;;;5099456;28;20234;-67
2023/12/29 03:26:41;;;;;;;1.48;1.35;;;;;;;;;;5099407;28;20203;-67
2023/12/29 03:29:08;;;;;;;2.17;1.52;;;;;;;;;;5099445;28;20288;-67
2023/12/29 03:31:38;;;;;;;2.28;1.50;;;;;;;;;;5099446;28;20214;-67
2023/12/29 03:34:05;;;;;;;1.50;1.40;;;;;;;;;;5098701;28;20214;-68
2023/12/29 03:36:33;;;;;;;1.48;1.30;;;;;;;;;;5099229;28;20309;-67
2023/12/29 03:39:00;;;;;;;1.40;1.30;;;;;;;;;;5099378;28;20265;-67
2023/12/29 03:41:28;;;;;;;1.20;1.00;;;;;;;;;;5098943;28;20200;-67
2023/12/29 03:43:56;;;;;;;1.60;1.33;;;;;;;;;;5098931;28;20302;-67
2023/12/29 03:46:24;;;;;;;1.67;1.27;;;;;;;;;;5098989;28;20203;-68
2023/12/29 03:48:53;;;;;;;1.50;1.40;;;;;;;;;;5099233;28;20327;-67
2023/12/29 03:51:20;;;;;;;1.70;1.35;;;;;;;;;;5098571;28;20214;-67
2023/12/29 03:53:48;;;;;;;1.65;1.48;;;;;;;;;;5099323;28;20304;-67
2023/12/29 03:56:16;;;;;;;1.52;1.23;;;;;;;;;;5098974;28;20261;-67
2023/12/29 03:58:44;;;;;;;1.40;1.20;;;;;;;;;;5098318;28;20235;-67
2023/12/29 04:01:11;;;;;;;1.40;1.30;;;;;;;;;;5098662;28;20204;-67
2023/12/29 04:03:39;;;;;;;1.30;1.20;;;;;;;;;;5098616;28;20210;-67
2023/12/29 04:06:08;;;;;;;1.33;1.20;;;;;;;;;;5098864;28;20298;-67
2023/12/29 04:08:36;;;;;;;1.50;1.40;;;;;;;;;;5098757;28;20284;-67
2023/12/29 04:11:03;;;;;;;1.30;1.20;;;;;;;;;;5098386;28;20242;-67
2023/12/29 04:13:31;;;;;;;1.10;0.93;;;;;;;;;;5098904;28;20270;-67
2023/12/29 04:15:58;;;;;;;1.58;1.30;;;;;;;;;;5098308;28;20213;-67
2023/12/29 04:18:26;;;;;;;1.88;1.13;;;;;;;;;;5098463;28;20239;-67
2023/12/29 04:20:54;;;;;;;1.20;1.10;;;;;;;;;;5098496;28;20200;-67
2023/12/29 04:23:23;;;;;;;1.15;1.05;;;;;;;;;;5098288;28;20207;-67
2023/12/29 04:25:50;;;;;;;1.23;1.13;;;;;;;;;;5098435;28;20621;-67
2023/12/29 04:28:18;;;;;;;1.45;1.20;;;;;;;;;;5098167;28;20586;-67
2023/12/29 04:30:45;;;;;;;1.30;1.20;;;;;;;;;;5097958;28;20216;-67
2023/12/29 04:33:13;;;;;;;1.30;1.13;;;;;;;;;;5097890;28;20644;-67
2023/12/29 04:35:40;;;;;;;1.58;1.48;;;;;;;;;;5098607;28;20310;-67
2023/12/29 04:38:08;;;;;;;1.20;1.10;;;;;;;;;;5098169;28;20203;-67
2023/12/29 04:40:37;;;;;;;1.20;1.10;;;;;;;;;;5097842;28;20265;-67
2023/12/29 04:43:04;;;;;;;1.17;1.02;;;;;;;;;;5097931;28;20562;-67
2023/12/29 04:45:32;;;;;;;1.30;1.20;;;;;;;;;;5097850;28;20204;-67
2023/12/29 04:47:59;;;;;;;0.93;0.93;;;;;;;;;;5098775;28;20258;-67
2023/12/29 04:50:27;;;;;;;1.10;1.00;;;;;;;;;;5098045;28;20223;-67
2023/12/29 04:52:55;;;;;;;1.30;1.20;;;;;;;;;;5097498;28;20204;-67
2023/12/29 04:55:22;;;;;;;1.23;1.10;;;;;;;;;;5097849;28;20218;-66
2023/12/29 04:57:51;;;;;;;1.15;1.05;;;;;;;;;;5097837;28;20204;-67
2023/12/29 05:00:19;;;;;;;1.00;1.00;;;;;;;;;;5097776;28;20236;-67
2023/12/29 05:02:46;;;;;;;1.23;1.13;;;;;;;;;;5097727;28;20290;-66
2023/12/29 05:05:14;;;;;;;1.10;1.05;;;;;;;;;;5097896;28;20203;-66
2023/12/29 05:07:41;;;;;;;1.27;1.17;;;;;;;;;;5097760;28;20210;-66
2023/12/29 05:10:09;;;;;;;1.40;1.30;;;;;;;;;;5097387;28;20227;-66
2023/12/29 05:12:36;;;;;;;1.30;1.20;;;;;;;;;;5097061;28;20214;-67
2023/12/29 05:15:05;;;;;;;1.13;1.02;;;;;;;;;;5097990;28;20203;-66
2023/12/29 05:17:33;;;;;;;1.10;1.00;;;;;;;;;;5097650;28;20223;-66
2023/12/29 05:20:01;;;;;;;1.30;1.05;;;;;;;;;;5097157;28;20204;-67
2023/12/29 05:22:28;;;;;;;1.23;1.13;;;;;;;;;;5097720;28;20215;-66
2023/12/29 05:24:59;;;;;;;1.20;1.10;;;;;;;;;;5097901;28;20467;-66
2023/12/29 05:27:26;;;;;;;1.25;1.15;;;;;;;;;;5097815;28;20302;-66
2023/12/29 05:29:54;;;;;;;1.13;1.02;;;;;;;;;;5097625;28;20267;-66
2023/12/29 05:32:23;;;;;;;1.35;1.10;;;;;;;;;;5097310;28;20203;-67
2023/12/29 05:34:50;;;;;;;1.20;1.10;;;;;;;;;;5097452;28;20211;-67
2023/12/29 05:37:17;;;;;;;1.15;1.05;;;;;;;;;;5096983;28;20214;-66
2023/12/29 05:39:45;;;;;;;1.10;1.00;;;;;;;;;;5097386;28;20199;-67
2023/12/29 05:42:12;;;;;;;1.25;1.15;;;;;;;;;;5100409;28;20203;-66
2023/12/29 05:44:39;;;;;;;1.15;1.00;;;;;;;;;;5101715;28;20561;-67
2023/12/29 05:47:07;;;;;;;1.20;1.10;;;;;;;;;;5101667;28;20521;-67
2023/12/29 05:49:39;;;;;;;1.23;1.13;;;;;;;;;;5101315;28;20227;-67
2023/12/29 05:52:06;;;;;;;1.02;0.93;;;;;;;;;;5101105;28;20298;-66
2023/12/29 05:54:33;;;;;;;1.35;1.10;;;;;;;;;;5101134;28;20203;-67
2023/12/29 05:57:01;;;;;;;1.60;1.25;;;;;;;;;;5101202;28;20210;-66
2023/12/29 05:59:28;;;;;;;1.20;1.10;;;;;;;;;;5101072;28;20250;-68
2023/12/29 06:01:56;;;;;;;0.98;0.98;;;;;;;;;;5100742;28;20231;-68
2023/12/29 06:04:23;;;;;;;0.98;0.98;;;;;;;;;;5101432;28;20227;-66
2023/12/29 06:06:52;;;;;;;1.30;1.20;;;;;;;;;;5101008;28;20478;-66
2023/12/29 06:09:19;;;;;;;1.10;1.08;;;;;;;;;;5100767;28;20640;-68
2023/12/29 06:11:47;;;;;;;1.23;1.13;;;;;;;;;;5100929;28;20566;-66
2023/12/29 06:14:14;;;;;;;1.27;1.00;;;;;;;;;;5100618;28;20204;-66
2023/12/29 06:16:42;;;;;;;1.33;1.10;;;;;;;;;;5100471;28;20212;-67
2023/12/29 06:19:09;;;;;;;1.02;1.02;;;;;;;;;;5100091;28;20295;-67
2023/12/29 06:21:42;;;;;;;1.27;1.17;;;;;;;;;;5100053;28;20643;-66
2023/12/29 06:24:11;;;;;;;1.02;0.93;;;;;;;;;;5100284;28;20212;-68
2023/12/29 06:26:42;;;;;;;1.33;1.10;;;;;;;;;;5100664;28;20243;-67
2023/12/29 06:29:10;;;;;;;1.17;1.08;;;;;;;;;;5100401;28;20211;-67
2023/12/29 06:31:37;;;;;;;1.23;1.00;;;;;;;;;;5099833;28;20204;-67
2023/12/29 06:34:04;;;;;;;1.25;1.05;;;;;;;;;;5099694;28;20213;-67
2023/12/29 06:36:32;;;;;;;1.30;1.20;;;;;;;;;;5100480;28;20212;-67
2023/12/29 06:39:00;;;;;;;1.30;1.20;;;;;;;;;;5100918;28;20204;-67
2023/12/29 06:41:28;;;;;;;0.90;0.90;;;;;;;;;;5100542;28;20565;-67
2023/12/29 06:43:56;;;;;;;1.27;1.17;;;;;;;;;;5099898;28;20203;-67
2023/12/29 06:46:23;;;;;;;1.20;1.10;;;;;;;;;;5100370;28;20606;-67
2023/12/29 06:48:50;;;;;;;1.20;1.10;;;;;;;;;;5100158;28;20204;-67
2023/12/29 06:51:18;;;;;;;1.33;1.20;;;;;;;;;;5099929;28;20622;-67
2023/12/29 06:53:47;;;;;;;1.20;1.10;;;;;;;;;;5099003;28;20276;-67
2023/12/29 06:56:15;;;;;;;1.10;1.00;;;;;;;;;;5100465;28;20207;-67
2023/12/29 06:58:44;;;;;;;1.23;1.10;;;;;;;;;;5099482;28;20207;-67
2023/12/29 07:01:11;;;;;;;0.93;0.93;;;;;;;;;;5100153;28;20199;-67
2023/12/29 07:03:39;;;;;;;1.00;1.00;;;;;;;;;;5099631;28;20207;-67
2023/12/29 07:06:07;;;;;;;1.20;1.10;;;;;;;;;;5099885;28;20204;-67
2023/12/29 07:08:35;;;;;;;1.40;1.30;;;;;;;;;;5099923;28;20372;-68
2023/12/29 07:11:03;;;;;;;1.20;1.10;;;;;;;;;;5099638;28;20231;-67
2023/12/29 07:13:30;;;;;;;1.10;1.00;;;;;;;;;;5099739;28;20207;-67
2023/12/29 07:15:59;;;;;;;1.20;1.10;;;;;;;;;;5099354;28;20258;-67
2023/12/29 07:18:26;;;;;;;1.20;1.20;;;;;;;;;;5099508;28;20203;-67
2023/12/29 07:20:54;;;;;;;1.05;1.00;;;;;;;;;;5099547;28;20204;-67
2023/12/29 07:23:22;;;;;;;1.10;1.00;;;;;;;;;;5099261;28;20229;-66
2023/12/29 07:25:50;;;;;;;0.95;0.95;;;;;;;;;;5099265;28;20211;-67
2023/12/29 07:28:17;;;;;;;1.08;1.08;;;;;;;;;;5099023;28;20703;-67
2023/12/29 07:30:45;;;;;;;1.20;1.10;;;;;;;;;;5098498;28;20235;-67
2023/12/29 07:33:13;;;;;;;1.10;1.00;;;;;;;;;;5098839;28;20204;-67
2023/12/29 07:35:41;;;;;;;1.25;1.15;;;;;;;;;;5098954;28;20230;-67
2023/12/29 07:38:08;;;;;;;0.98;0.98;;;;;;;;;;5098482;28;20204;-67
2023/12/29 07:40:36;;;;;;;1.20;1.10;;;;;;;;;;5098347;28;20191;-67
2023/12/29 07:43:03;;;;;;;1.13;1.02;;;;;;;;;;5097904;28;20203;-67
2023/12/29 07:45:31;;;;;;;1.13;1.02;;;;;;;;;;5098551;28;20204;-67
2023/12/29 07:47:58;;;;;;;1.05;1.00;;;;;;;;;;5098858;28;20195;-67
2023/12/29 07:50:27;;;;;;;1.83;1.30;;;;;;;;;;5098154;28;20228;-67
2023/12/29 07:52:54;;;;;;;1.10;1.00;;;;;;;;;;5098274;28;20207;-67
2023/12/29 07:55:22;;;;;;;1.00;1.00;;;;;;;;;;5098344;28;20204;-67
2023/12/29 07:57:49;;;;;;;1.30;1.20;;;;;;;;;;5098391;28;20210;-67
2023/12/29 08:00:17;;;;;;;1.13;1.02;;;;;;;;;;5098083;28;20242;-67
2023/12/29 08:02:44;;;;;;;1.02;1.02;;;;;;;;;;5098667;28;20222;-67
2023/12/29 08:05:12;;;;;;;1.30;1.20;;;;;;;;;;5097536;28;20593;-67
2023/12/29 08:07:41;;;;;;;1.08;0.93;;;;;;;;;;5098609;28;20211;-67
2023/12/29 08:10:08;;;;;;;1.23;1.13;;;;;;;;;;5098161;28;20644;-67
2023/12/29 08:12:36;;;;;;;1.13;1.02;;;;;;;;;;5098053;28;20246;-67
2023/12/29 08:15:04;;;;;;;1.10;1.10;;;;;;;;;;5097993;28;20200;-67
2023/12/29 08:17:32;;;;;;;1.20;1.10;;;;;;;;;;5097708;28;20196;-67
2023/12/29 08:19:59;;;;;;;1.25;1.15;;;;;;;;;;5097689;28;20231;-67
2023/12/29 08:22:29;;;;;;;0.90;0.90;;;;;;;;;;5097862;28;20203;-67
2023/12/29 08:24:58;;;;;;;1.10;1.00;;;;;;;;;;5097631;28;20203;-67
2023/12/29 08:27:25;;;;;;;1.08;1.00;;;;;;;;;;5097475;28;20226;-67
2023/12/29 08:29:53;;;;;;;1.02;0.93;;;;;;;;;;5097242;28;20266;-67
2023/12/29 08:32:22;;;;;;;1.08;0.98;;;;;;;;;;5097733;28;20316;-67
2023/12/29 08:34:49;;;;;;;1.52;1.23;;;;;;;;;;5097424;28;20214;-67
2023/12/29 08:37:19;;;;;;;1.08;1.08;;;;;;;;;;5096974;28;20230;-66
2023/12/29 08:39:47;;;;;;;1.17;1.08;;;;;;;;;;5097453;28;20235;-67
2023/12/29 08:42:16;;;;;;;0.90;0.90;;;;;;;;;;5097791;28;20215;-67
2023/12/29 08:44:44;;;;;;;0.93;0.93;;;;;;;;;;5097927;28;20638;-66
2023/12/29 08:47:13;;;;;;;1.17;1.10;;;;;;;;;;5097525;28;20210;-66
2023/12/29 08:49:41;;;;;;;1.30;1.20;;;;;;;;;;5096939;28;20304;-68
2023/12/29 08:52:09;;;;;;;1.10;1.02;;;;;;;;;;5096782;28;20214;-68
2023/12/29 08:54:37;;;;;;;1.10;1.00;;;;;;;;;;5097575;28;20269;-67
2023/12/29 08:57:06;;;;;;;1.50;1.40;;;;;;;;;;5096863;28;20260;-66
2023/12/29 08:59:35;;;;;;;1.20;1.10;;;;;;;;;;5096985;28;20332;-67
2023/12/29 09:02:02;;;;;;;1.55;0.90;;;;;;;;;;5096784;28;20210;-66
2023/12/29 09:04:30;;;;;;;1.10;1.00;;;;;;;;;;5096247;28;20281;-66
2023/12/29 09:06:57;;;;;;;1.10;1.00;;;;;;;;;;5096301;28;20203;-67
2023/12/29 09:09:24;;;;;;;1.15;1.05;;;;;;;;;;5096552;28;20211;-66
2023/12/29 09:11:52;;;;;;;1.27;1.17;;;;;;;;;;5096269;28;20252;-66
2023/12/29 09:14:20;;;;;;;1.20;1.10;;;;;;;;;;5096555;28;20258;-69
2023/12/29 09:16:48;;;;;;;2.70;1.13;;;;;;;;;;5096574;28;20218;-65
2023/12/29 09:19:16;;;;;;;7.55;1.55;;;;;;;;;;5096835;28;20695;-66
2023/12/29 09:21:43;;;;;;;2.72;1.40;;;;;;;;;;5096827;28;20199;-66
2023/12/29 09:24:10;;;;;;;5.63;1.50;;;;;;;;;;5096278;28;20214;-65
2023/12/29 09:26:38;;;;;;;3.08;1.42;;;;;;;;;;5096149;28;20214;-65
2023/12/29 09:29:06;;;;;;;5.28;1.58;;;;;;;;;;5097104;28;20222;-65
2023/12/29 09:31:33;;;;;;;3.67;1.17;;;;;;;;;;5096768;28;20242;-66
2023/12/29 09:34:02;;;;;;;3.08;1.33;;;;;;;;;;5096101;28;20477;-65
2023/12/29 09:36:29;;;;;;;2.65;1.20;;;;;;;;;;5096149;28;20203;-65
2023/12/29 09:38:57;;;;;;;3.83;1.60;;;;;;;;;;5096046;28;20269;-66
2023/12/29 09:41:25;;;;;;;2.17;1.00;;;;;;;;;;5096668;28;20273;-65
2023/12/29 09:43:53;;;;;;;2.80;1.10;;;;;;;;;;5096076;28;20463;-65
2023/12/29 09:46:23;;;;;;;1.27;1.17;;;;;;;;;;5096332;28;20268;-66
2023/12/29 09:48:53;;;;;;;2.45;1.20;;;;;;;;;;5096277;28;20204;-66
2023/12/29 09:51:23;;;;;;;2.50;1.13;;;;;;;;;;5096305;28;20231;-65
2023/12/29 09:53:52;;;;;;;3.85;1.13;;;;;;;;;;5096521;28;20211;-65
2023/12/29 09:56:21;;;;;;;2.50;1.20;;;;;;;;;;5095391;28;20211;-66
2023/12/29 09:58:48;;;;;;;1.58;1.33;;;;;;;;;;5095712;28;20208;-65
2023/12/29 10:01:16;;;;;;;1.70;0.90;;;;;;;;;;5096264;28;20215;-66
2023/12/29 10:03:43;;;;;;;2.72;1.05;;;;;;;;;;5095610;28;20203;-65
2023/12/29 10:06:13;;;;;;;1.52;0.90;;;;;;;;;;5095253;28;20200;-65
2023/12/29 10:08:46;;;;;;;2.55;1.10;;;;;;;;;;5095163;28;20212;-66
2023/12/29 10:11:14;;;;;;;1.42;1.10;;;;;;;;;;5095377;28;20223;-65
2023/12/29 10:13:42;;;;;;;1.60;1.15;;;;;;;;;;5095019;28;20210;-65
2023/12/29 10:16:15;;;;;;;1.20;1.05;;;;;;;;;;5095462;28;20488;-65
2023/12/29 10:18:47;;;;;;;1.10;1.00;;;;;;;;;;5095869;28;20227;-66
2023/12/29 10:21:19;;;;;;;2.47;1.38;;;;;;;;;;5096044;28;20200;-65
2023/12/29 10:23:50;;;;;;;2.15;1.00;;;;;;;;;;5095830;28;20257;-65
2023/12/29 10:26:18;;;;;;;2.97;0.93;;;;;;;;;;5095099;28;20204;-65
2023/12/29 10:28:48;;;;;;;2.83;1.23;;;;;;;;;;5097883;28;20473;-65
2023/12/29 10:31:16;;;;;;;1.58;1.00;;;;;;;;;;5099115;28;20285;-66
2023/12/29 10:33:44;;;;;;;1.90;1.13;;;;;;;;;;5099090;28;20265;-64
2023/12/29 10:36:11;;;;;;;1.38;1.02;;;;;;;;;;5099121;28;20570;-65
2023/12/29 10:38:41;;;;;;;1.65;1.00;;;;;;;;;;5099263;28;20204;-65
2023/12/29 10:41:14;;;;;;;1.45;1.02;;;;;;;;;;5098982;28;20211;-65
2023/12/29 10:43:41;;;;;;;2.15;1.27;;;;;;;;;;5099266;28;20204;-66
2023/12/29 10:46:10;;;;;;;1.33;1.20;;;;;;;;;;5099125;28;20203;-65
2023/12/29 10:48:38;;;;;;;1.20;1.10;;;;;;;;;;5098659;28;20218;-66
2023/12/29 10:51:05;;;;;;;1.15;1.05;;;;;;;;;;5098253;28;20233;-65
2023/12/29 10:53:33;;;;;;;1.40;0.95;;;;;;;;;;5099077;28;20210;-65
2023/12/29 10:56:01;;;;;;;1.45;1.00;;;;;;;;;;5098518;28;20214;-65
2023/12/29 10:58:29;;;;;;;1.00;0.90;;;;;;;;;;5098803;28;20214;-65
2023/12/29 11:00:57;;;;;;;1.00;0.95;;;;;;;;;;5098014;28;20311;-65
2023/12/29 11:03:25;;;;;;;1.17;1.08;;;;;;;;;;5098453;28;20204;-65
2023/12/29 11:05:53;;;;;;;1.10;1.00;;;;;;;;;;5097777;28;20214;-65
2023/12/29 11:08:21;;;;;;;1.23;1.00;;;;;;;;;;5097296;28;20196;-66
2023/12/29 11:10:49;;;;;;;1.50;0.90;;;;;;;;;;5097293;28;20223;-65
2023/12/29 11:13:17;;;;;;;1.10;1.00;;;;;;;;;;5097014;28;20203;-66
2023/12/29 11:15:46;;;;;;;1.00;0.90;;;;;;;;;;5097552;28;20203;-66
2023/12/29 11:18:14;;;;;;;1.20;1.00;;;;;;;;;;5097743;28;20208;-65
2023/12/29 11:20:42;;;;;;;1.88;0.90;;;;;;;;;;5098209;28;20203;-66
2023/12/29 11:23:11;;;;;;;1.27;0.90;;;;;;;;;;5097984;28;20214;-67
2023/12/29 11:25:39;;;;;;;1.17;1.08;;;;;;;;;;5097924;28;20229;-65
2023/12/29 11:28:08;;;;;;;1.20;1.10;;;;;;;;;;5097323;28;20211;-65
2023/12/29 11:30:37;;;;;;;1.08;1.00;;;;;;;;;;5096749;28;20203;-66
2023/12/29 11:33:09;;;;;;;1.25;1.10;;;;;;;;;;5097244;28;20312;-65
2023/12/29 11:35:41;;;;;;;1.25;1.15;;;;;;;;;;5097758;28;20231;-65
2023/12/29 11:38:26;;;;;;;1.55;1.10;;;;;;;;;;5096665;28;20204;-65
2023/12/29 11:40:59;;;;;;;0.98;0.95;;;;;;;;;;5096840;28;20202;-66
2023/12/29 11:43:27;;;;;;;1.27;1.08;;;;;;;;;;5096777;28;20239;-66
2023/12/29 11:45:54;;;;;;;1.70;1.08;;;;;;;;;;5097553;28;20203;-66
2023/12/29 11:48:36;;;;;;;0.93;0.93;;;;;;;;;;5097091;28;20211;-66
2023/12/29 11:51:25;;;;;;;1.38;0.98;;;;;;;;;;5095998;28;20648;-66
2023/12/29 11:53:53;;;;;;;1.40;1.05;;;;;;;;;;5096102;28;20203;-66
2023/12/29 11:56:20;;;;;;;1.20;1.10;;;;;;;;;;5096418;28;20204;-66
2023/12/29 11:58:47;;;;;;;0.98;0.98;;;;;;;;;;5096902;28;20566;-66
2023/12/29 12:01:15;;;;;;;1.08;0.80;;;;;;;;;;5096487;28;20207;-66
2023/12/29 12:03:42;;;;;;;1.40;1.00;;;;;;;;;;5096550;28;20574;-66
2023/12/29 12:06:11;;;;;;;1.95;1.05;;;;;;;;;;5095806;28;20199;-66
2023/12/29 12:08:39;;;;;;;1.23;1.13;;;;;;;;;;5097174;28;20204;-66
2023/12/29 12:11:25;;;;;;;1.08;1.00;;;;;;;;;;5096817;28;20624;-66
2023/12/29 12:13:53;;;;;;;1.45;0.90;;;;;;;;;;5096121;28;20203;-66
2023/12/29 12:16:38;;;;;;;0.90;0.90;;;;;;;;;;5096434;28;20200;-66
2023/12/29 12:19:06;;;;;;;1.08;1.00;;;;;;;;;;5096631;28;20215;-66
2023/12/29 12:21:35;;;;;;;0.90;0.80;;;;;;;;;;5097077;28;20335;-66
2023/12/29 12:24:04;;;;;;;0.90;0.90;;;;;;;;;;5096572;28;20222;-66
2023/12/29 12:26:32;;;;;;;0.90;0.90;;;;;;;;;;5095856;28;20208;-66
2023/12/29 12:28:59;;;;;;;0.90;0.90;;;;;;;;;;5096400;28;20204;-66
2023/12/29 12:31:27;;;;;;;1.13;0.77;;;;;;;;;;5096189;28;20219;-66
2023/12/29 12:33:55;;;;;;;2.13;1.00;;;;;;;;;;5096859;28;20204;-66
2023/12/29 12:36:23;;;;;;;1.15;1.00;;;;;;;;;;5096380;28;20647;-66
2023/12/29 12:38:55;;;;;;;1.48;1.10;;;;;;;;;;5095453;28;20204;-66
2023/12/29 12:41:22;;;;;;;1.55;0.95;;;;;;;;;;5096435;28;20306;-66
2023/12/29 12:43:55;;;;;;;1.63;0.90;;;;;;;;;;5096038;28;20603;-66
2023/12/29 12:46:25;;;;;;;0.90;0.90;;;;;;;;;;5095899;28;20203;-66
2023/12/29 12:48:52;;;;;;;2.10;0.90;;;;;;;;;;5095398;28;20218;-66
2023/12/29 12:51:20;;;;;;;1.27;1.00;;;;;;;;;;5095097;28;20220;-66
2023/12/29 12:53:49;;;;;;;1.27;0.80;;;;;;;;;;5095900;28;20273;-65
2023/12/29 12:56:19;;;;;;;0.80;0.80;;;;;;;;;;5095997;28;20199;-65
2023/12/29 12:58:47;;;;;;;0.95;0.80;;;;;;;;;;5095840;28;20200;-65
2023/12/29 13:01:14;;;;;;;1.67;1.10;;;;;;;;;;5095365;28;20204;-65
2023/12/29 13:03:42;;;;;;;0.80;0.80;;;;;;;;;;5096126;28;20203;-65
2023/12/29 13:06:09;;;;;;;0.70;0.70;;;;;;;;;;5096240;28;20203;-65
2023/12/29 13:08:36;;;;;;;0.80;0.80;;;;;;;;;;5096034;28;20494;-65
2023/12/29 13:11:04;;;;;;;1.00;0.90;;;;;;;;;;5095378;28;20196;-65
2023/12/29 13:13:40;;;;;;;0.90;0.90;;;;;;;;;;5095033;28;20211;-65
2023/12/29 13:16:08;;;;;;;1.35;0.85;;;;;;;;;;5094794;28;20203;-66
2023/12/29 13:18:35;;;;;;;1.10;1.00;;;;;;;;;;5095447;28;20344;-66
2023/12/29 13:21:04;;;;;;;0.80;0.80;;;;;;;;;;5096395;28;20203;-66
2023/12/29 13:23:31;;;;;;;1.10;1.00;;;;;;;;;;5095609;28;20701;-65
2023/12/29 13:25:59;;;;;;;1.60;0.93;;;;;;;;;;5095806;28;20199;-65
2023/12/29 13:28:27;;;;;;;1.10;0.90;;;;;;;;;;5096105;28;20203;-65
2023/12/29 13:30:56;;;;;;;0.95;0.90;;;;;;;;;;5095837;28;20748;-65
2023/12/29 13:33:28;;;;;;;1.20;0.90;;;;;;;;;;5096049;28;20775;-65
2023/12/29 13:35:59;;;;;;;0.70;0.70;;;;;;;;;;5095662;28;20210;-66
2023/12/29 13:38:28;;;;;;;0.88;0.88;;;;;;;;;;5096692;28;20546;-67
2023/12/29 13:40:57;;;;;;;0.70;0.70;;;;;;;;;;5096301;28;20203;-67
2023/12/29 13:43:25;;;;;;;0.80;0.80;;;;;;;;;;5095543;28;20203;-65
2023/12/29 13:45:52;;;;;;;0.90;0.90;;;;;;;;;;5095330;28;20204;-65
2023/12/29 13:48:21;;;;;;;1.35;1.00;;;;;;;;;;5094525;28;20502;-65
2023/12/29 13:50:49;;;;;;;1.30;0.70;;;;;;;;;;5094881;28;20247;-67
2023/12/29 13:53:19;;;;;;;0.80;0.80;;;;;;;;;;5095674;28;20237;-65
2023/12/29 13:55:47;;;;;;;1.27;0.90;;;;;;;;;;5095349;28;20627;-66
2023/12/29 13:58:14;;;;;;;1.02;0.88;;;;;;;;;;5095395;28;20218;-65
2023/12/29 14:00:42;;;;;;;1.38;0.82;;;;;;;;;;5095046;28;20231;-65
2023/12/29 14:03:12;;;;;;;0.88;0.88;;;;;;;;;;5098900;28;20199;-65
2023/12/29 14:05:50;;;;;;;1.33;0.80;;;;;;;;;;5098507;28;20199;-66
2023/12/29 14:08:20;;;;;;;0.77;0.70;;;;;;;;;;5099058;28;20252;-66
2023/12/29 14:10:47;;;;;;;1.15;0.95;;;;;;;;;;5098645;28;20208;-66
2023/12/29 14:13:16;;;;;;;0.80;0.80;;;;;;;;;;5097821;28;20322;-65
2023/12/29 14:15:44;;;;;;;0.88;0.80;;;;;;;;;;5098668;28;20206;-66
2023/12/29 14:18:20;;;;;;;0.95;0.93;;;;;;;;;;5098525;28;20204;-65
2023/12/29 14:20:49;;;;;;;0.95;0.85;;;;;;;;;;5098012;28;20235;-65
2023/12/29 14:23:19;;;;;;;0.80;0.80;;;;;;;;;;5098226;28;20203;-66
2023/12/29 14:25:47;;;;;;;0.82;0.82;;;;;;;;;;5098347;28;20625;-65
2023/12/29 14:28:18;;;;;;;0.70;0.70;;;;;;;;;;5098721;28;20204;-65
2023/12/29 14:30:46;;;;;;;1.48;0.80;;;;;;;;;;5098791;28;20199;-65
2023/12/29 14:33:13;;;;;;;0.70;0.70;;;;;;;;;;5098043;28;20288;-66
2023/12/29 14:35:41;;;;;;;1.50;0.90;;;;;;;;;;5097602;28;20214;-65
2023/12/29 14:38:11;;;;;;;1.60;0.80;;;;;;;;;;5098098;28;20215;-65
2023/12/29 14:40:39;;;;;;;0.90;0.90;;;;;;;;;;5097589;28;20207;-66
2023/12/29 14:43:07;;;;;;;0.77;0.77;;;;;;;;;;5096978;28;20286;-66
2023/12/29 14:45:34;;;;;;;0.95;0.80;;;;;;;;;;5098072;28;20207;-65
2023/12/29 14:48:01;;;;;;;1.15;0.77;;;;;;;;;;5098496;28;20479;-65
2023/12/29 14:50:29;;;;;;;1.33;0.60;;;;;;;;;;5099166;28;20570;-65